Arctic Taglu — CY8968 — position and weather

sailwx.info

Track history (hours):
 
Tides and Currents Weather Stations Pressure Air Temp Water Temp Dewpoint Dewpoint Depression Visibility Wind Speed Wind Dir Waves Ship Positions

Arctic Taglu

Last reported at 2015-May-05 10:33 UTC. Time now 2015-May-05 11:14 UTC.
Position N 49°11' W 123°53'.

Length 33 m; draft 6 m.

Type: Tug. MMSI: 316003483.

Date/timePositionNaut miles runAvg speedWind from/ knotsBaromVisibWave heightAir tempDewpointWater temp
2015-May-05 10:33N 49°11' W 123°53'2 0.9
2015-May-05 08:33N 49°09' W 123°52'6 6.3
2015-May-05 07:34N 49°12' W 123°44'9 9.5
2015-May-05 06:34N 49°09' W 123°30'9 9.1
2015-May-05 05:33N 49°07' W 123°16'1010.1
2015-May-05 04:33N 49°09' W 123°01'5 5.0
2015-May-05 03:33N 49°12' W 122°54'0 0.0
2015-May-05 02:33N 49°12' W 122°54'0 0.1
2015-May-05 01:33N 49°12' W 122°54'0 0.0
2015-May-05 00:33N 49°12' W 122°54'0 0.0
2015-May-04 23:33N 49°12' W 122°54'0 0.0
2015-May-04 22:33N 49°12' W 122°54'0 0.0
2015-May-04 21:33N 49°12' W 122°54'0 0.0
2015-May-02 18:32N 49°12' W 122°54'0 0.0
2015-May-02 17:32N 49°12' W 122°54'0 0.0
2015-May-02 16:32N 49°12' W 122°54'0 0.0
2015-May-02 15:32N 49°12' W 122°54'0 0.4
2015-May-02 14:33N 49°12' W 122°55'0 0.4
2015-May-02 13:31N 49°12' W 122°54'0 0.0
2015-May-02 12:31N 49°12' W 122°54'1 1.3
2015-May-02 11:33N 49°11' W 122°55'9 9.0
2015-May-02 10:34N 49°07' W 123°08'9 8.9
2015-May-02 09:33N 49°06' W 123°21'1010.4
2015-May-02 08:33N 49°10' W 123°36'1010.4
2015-May-02 07:33N 49°14' W 123°51'5 5.2
2015-May-02 06:31N 49°09' W 123°52'0 0.0
2015-May-02 05:28N 49°09' W 123°52'2 1.9
2015-May-02 04:32N 49°10' W 123°53'7 7.3
2015-May-02 03:33N 49°12' W 123°42'9 9.4
2015-May-02 02:33N 49°08' W 123°28'9 9.1
2015-May-02 01:33N 49°08' W 123°15'9 9.5
2015-May-02 00:33N 49°09' W 123°00'5 4.2
2015-May-01 23:28N 49°12' W 122°54'0 0.0
2015-May-01 22:31N 49°12' W 122°54'0 0.0
2015-May-01 21:28N 49°12' W 122°54'0 0.0
2015-May-01 20:31N 49°12' W 122°54'0 0.0
2015-May-01 19:28N 49°12' W 122°54'0 0.0
2015-May-01 18:31N 49°12' W 122°54'0 0.0
2015-May-01 17:25N 49°12' W 122°54'0 0.0
2015-May-01 16:28N 49°12' W 122°54'0 0.0
2015-May-01 15:32N 49°12' W 122°54'6 6.2
2015-May-01 14:33N 49°09' W 123°02'7 7.2
2015-May-01 13:33N 49°08' W 123°13'9 8.6
2015-May-01 12:33N 49°08' W 123°26'10 9.5
2015-May-01 11:33N 49°11' W 123°40'8 8.3
2015-May-01 10:33N 49°11' W 123°53'2 1.0
2015-May-01 08:28N 49°09' W 123°52'6 6.1
2015-May-01 07:33N 49°13' W 123°46'1010.3
2015-May-01 06:33N 49°09' W 123°32'1010.0
2015-May-01 05:33N 49°07' W 123°17'1111.2
2015-May-01 04:33N 49°09' W 122°60'4 4.2
2015-May-01 03:33N 49°12' W 122°54'0 0.0
2015-May-01 02:33N 49°12' W 122°54'0 0.1
2015-May-01 01:33N 49°12' W 122°54'0 0.0
2015-May-01 00:33N 49°12' W 122°54'0 0.0
2015-Apr-30 23:33N 49°12' W 122°54'0 0.0
2015-Apr-30 22:33N 49°12' W 122°54'0 0.0
2015-Apr-30 21:33N 49°12' W 122°54'0 0.0
2015-Apr-30 20:30N 49°12' W 122°54'0 0.0
2015-Apr-30 19:33N 49°12' W 122°54'0 0.0
2015-Apr-30 18:33N 49°12' W 122°54'0 0.0
2015-Apr-30 17:33N 49°12' W 122°54'0 0.0
2015-Apr-30 16:33N 49°12' W 122°54'0 0.0
2015-Apr-30 15:33N 49°12' W 122°54'0 0.0
2015-Apr-30 14:33N 49°12' W 122°54'0 0.0
2015-Apr-30 13:33N 49°12' W 122°54'0 0.1
2015-Apr-30 12:33N 49°12' W 122°54'0 0.1
2015-Apr-30 11:33N 49°12' W 122°55'6 6.1
2015-Apr-30 10:33N 49°09' W 123°03'7 7.5
2015-Apr-30 09:33N 49°08' W 123°14'9 8.9
2015-Apr-30 08:33N 49°08' W 123°28'10 9.8
2015-Apr-30 07:33N 49°12' W 123°42'7 7.4
2015-Apr-30 06:33N 49°10' W 123°53'1 0.4
2015-Apr-30 04:32N 49°09' W 123°52'6 6.0
2015-Apr-30 03:33N 49°12' W 123°45'10 9.6
2015-Apr-30 02:33N 49°09' W 123°31'9 9.4
2015-Apr-30 01:33N 49°06' W 123°18'1010.5
2015-Apr-30 00:33N 49°09' W 123°02'6 5.6
2015-Apr-29 23:31N 49°12' W 122°54'0 0.0
2015-Apr-29 22:31N 49°12' W 122°54'0 0.0
2015-Apr-29 21:31N 49°12' W 122°54'0 0.0
2015-Apr-29 20:31N 49°12' W 122°54'0 0.0
2015-Apr-29 19:31N 49°12' W 122°54'0 0.0
2015-Apr-29 18:31N 49°12' W 122°54'0 0.1
2015-Apr-29 17:31N 49°12' W 122°54'0 0.0
2015-Apr-29 16:31N 49°12' W 122°54'0 0.0
2015-Apr-29 15:32N 49°12' W 122°54'0 0.0
2015-Apr-29 14:31N 49°12' W 122°54'0 0.0
2015-Apr-29 13:31N 49°12' W 122°54'0 0.1
2015-Apr-29 12:31N 49°12' W 122°54'0 0.2
2015-Apr-29 11:33N 49°12' W 122°55'7 6.6
2015-Apr-29 10:33N 49°08' W 123°03'7 7.3
2015-Apr-29 09:33N 49°08' W 123°14'9 8.7
2015-Apr-29 08:33N 49°08' W 123°28'10 9.7
2015-Apr-29 07:33N 49°12' W 123°42'7 7.4
2015-Apr-29 06:33N 49°10' W 123°53'1 1.1
2015-Apr-29 05:29N 49°09' W 123°52'0 0.0
2015-Apr-29 04:32N 49°09' W 123°52'6 6.0
2015-Apr-29 03:33N 49°13' W 123°46'1010.2
2015-Apr-29 02:33N 49°09' W 123°31'10 9.7
2015-Apr-29 01:33N 49°07' W 123°17'1111.2
2015-Apr-29 00:33N 49°09' W 123°00'4 4.3
2015-Apr-28 23:32N 49°12' W 122°54'0 0.0
2015-Apr-28 22:29N 49°12' W 122°54'0 0.0
2015-Apr-28 21:32N 49°12' W 122°54'0 0.0
2015-Apr-28 20:32N 49°12' W 122°54'0 0.0
2015-Apr-28 19:32N 49°12' W 122°54'0 0.0
2015-Apr-28 18:32N 49°12' W 122°54'0 0.0
2015-Apr-28 17:32N 49°12' W 122°54'2 1.7
2015-Apr-28 16:33N 49°10' W 122°56'5 5.4
2015-Apr-28 15:33N 49°08' W 123°03'5 4.9
2015-Apr-28 14:33N 49°07' W 123°10'5 5.0
2015-Apr-28 13:33N 49°06' W 123°18'8 7.8
2015-Apr-28 12:33N 49°08' W 123°30'8 7.8
2015-Apr-28 11:33N 49°11' W 123°41'8 7.6
2015-Apr-28 10:33N 49°12' W 123°52'4 3.5
2015-Apr-28 09:32N 49°09' W 123°52'0 0.0
2015-Apr-28 08:32N 49°09' W 123°52'5 5.0
2015-Apr-28 07:33N 49°13' W 123°48'1110.8
2015-Apr-28 06:33N 49°09' W 123°32'1010.1
2015-Apr-28 05:33N 49°07' W 123°18'1010.3
2015-Apr-28 04:33N 49°09' W 123°02'6 5.7
2015-Apr-28 03:33N 49°12' W 122°54'0 0.1
2015-Apr-28 02:33N 49°12' W 122°54'0 0.0
2015-Apr-28 01:33N 49°12' W 122°54'0 0.0
2015-Apr-28 00:30N 49°12' W 122°54'  
2015-Apr-25 13:31N 49°12' W 122°54'0 0.1
2015-Apr-25 12:33N 49°12' W 122°54'2 1.9
2015-Apr-25 11:33N 49°10' W 122°56'8 8.2
2015-Apr-25 10:33N 49°07' W 123°07'  
Track history (hours):
 
Tides and Currents Weather Stations Pressure Air Temp Water Temp Dewpoint Dewpoint Depression Visibility Wind Speed Wind Dir Waves Ship Positions

Arctic Taglu

Last reported at 2015-May-05 10:33 UTC. Time now 2015-May-05 11:14 UTC.
Position N 49°11' W 123°53'.

Length 33 m; draft 6 m.

Type: Tug. MMSI: 316003483.

Date/timePositionNaut miles runAvg speedWind from/ knotsBaromVisibWave heightAir tempDewpointWater temp
2015-May-05 10:33N 49°11' W 123°53'2 0.9
2015-May-05 08:33N 49°09' W 123°52'6 6.3
2015-May-05 07:34N 49°12' W 123°44'9 9.5
2015-May-05 06:34N 49°09' W 123°30'9 9.1
2015-May-05 05:33N 49°07' W 123°16'1010.1
2015-May-05 04:33N 49°09' W 123°01'5 5.0
2015-May-05 03:33N 49°12' W 122°54'0 0.0
2015-May-05 02:33N 49°12' W 122°54'0 0.1
2015-May-05 01:33N 49°12' W 122°54'0 0.0
2015-May-05 00:33N 49°12' W 122°54'0 0.0
2015-May-04 23:33N 49°12' W 122°54'0 0.0
2015-May-04 22:33N 49°12' W 122°54'0 0.0
2015-May-04 21:33N 49°12' W 122°54'0 0.0
2015-May-02 18:32N 49°12' W 122°54'0 0.0
2015-May-02 17:32N 49°12' W 122°54'0 0.0
2015-May-02 16:32N 49°12' W 122°54'0 0.0
2015-May-02 15:32N 49°12' W 122°54'0 0.4
2015-May-02 14:33N 49°12' W 122°55'0 0.4
2015-May-02 13:31N 49°12' W 122°54'0 0.0
2015-May-02 12:31N 49°12' W 122°54'1 1.3
2015-May-02 11:33N 49°11' W 122°55'9 9.0
2015-May-02 10:34N 49°07' W 123°08'9 8.9
2015-May-02 09:33N 49°06' W 123°21'1010.4
2015-May-02 08:33N 49°10' W 123°36'1010.4
2015-May-02 07:33N 49°14' W 123°51'5 5.2
2015-May-02 06:31N 49°09' W 123°52'0 0.0
2015-May-02 05:28N 49°09' W 123°52'2 1.9
2015-May-02 04:32N 49°10' W 123°53'7 7.3
2015-May-02 03:33N 49°12' W 123°42'9 9.4
2015-May-02 02:33N 49°08' W 123°28'9 9.1
2015-May-02 01:33N 49°08' W 123°15'9 9.5
2015-May-02 00:33N 49°09' W 123°00'5 4.2
2015-May-01 23:28N 49°12' W 122°54'0 0.0
2015-May-01 22:31N 49°12' W 122°54'0 0.0
2015-May-01 21:28N 49°12' W 122°54'0 0.0
2015-May-01 20:31N 49°12' W 122°54'0 0.0
2015-May-01 19:28N 49°12' W 122°54'0 0.0
2015-May-01 18:31N 49°12' W 122°54'0 0.0
2015-May-01 17:25N 49°12' W 122°54'0 0.0
2015-May-01 16:28N 49°12' W 122°54'0 0.0
2015-May-01 15:32N 49°12' W 122°54'6 6.2
2015-May-01 14:33N 49°09' W 123°02'7 7.2
2015-May-01 13:33N 49°08' W 123°13'9 8.6
2015-May-01 12:33N 49°08' W 123°26'10 9.5
2015-May-01 11:33N 49°11' W 123°40'8 8.3
2015-May-01 10:33N 49°11' W 123°53'2 1.0
2015-May-01 08:28N 49°09' W 123°52'6 6.1
2015-May-01 07:33N 49°13' W 123°46'1010.3
2015-May-01 06:33N 49°09' W 123°32'1010.0
2015-May-01 05:33N 49°07' W 123°17'1111.2
2015-May-01 04:33N 49°09' W 122°60'4 4.2
2015-May-01 03:33N 49°12' W 122°54'0 0.0
2015-May-01 02:33N 49°12' W 122°54'0 0.1
2015-May-01 01:33N 49°12' W 122°54'0 0.0
2015-May-01 00:33N 49°12' W 122°54'0 0.0
2015-Apr-30 23:33N 49°12' W 122°54'0 0.0
2015-Apr-30 22:33N 49°12' W 122°54'0 0.0
2015-Apr-30 21:33N 49°12' W 122°54'0 0.0
2015-Apr-30 20:30N 49°12' W 122°54'0 0.0
2015-Apr-30 19:33N 49°12' W 122°54'0 0.0
2015-Apr-30 18:33N 49°12' W 122°54'0 0.0
2015-Apr-30 17:33N 49°12' W 122°54'0 0.0
2015-Apr-30 16:33N 49°12' W 122°54'0 0.0
2015-Apr-30 15:33N 49°12' W 122°54'0 0.0
2015-Apr-30 14:33N 49°12' W 122°54'0 0.0
2015-Apr-30 13:33N 49°12' W 122°54'0 0.1
2015-Apr-30 12:33N 49°12' W 122°54'0 0.1
2015-Apr-30 11:33N 49°12' W 122°55'6 6.1
2015-Apr-30 10:33N 49°09' W 123°03'7 7.5
2015-Apr-30 09:33N 49°08' W 123°14'9 8.9
2015-Apr-30 08:33N 49°08' W 123°28'10 9.8
2015-Apr-30 07:33N 49°12' W 123°42'7 7.4
2015-Apr-30 06:33N 49°10' W 123°53'1 0.4
2015-Apr-30 04:32N 49°09' W 123°52'6 6.0
2015-Apr-30 03:33N 49°12' W 123°45'10 9.6
2015-Apr-30 02:33N 49°09' W 123°31'9 9.4
2015-Apr-30 01:33N 49°06' W 123°18'1010.5
2015-Apr-30 00:33N 49°09' W 123°02'6 5.6
2015-Apr-29 23:31N 49°12' W 122°54'0 0.0
2015-Apr-29 22:31N 49°12' W 122°54'0 0.0
2015-Apr-29 21:31N 49°12' W 122°54'0 0.0
2015-Apr-29 20:31N 49°12' W 122°54'0 0.0
2015-Apr-29 19:31N 49°12' W 122°54'0 0.0
2015-Apr-29 18:31N 49°12' W 122°54'0 0.1
2015-Apr-29 17:31N 49°12' W 122°54'0 0.0
2015-Apr-29 16:31N 49°12' W 122°54'0 0.0
2015-Apr-29 15:32N 49°12' W 122°54'0 0.0
2015-Apr-29 14:31N 49°12' W 122°54'0 0.0
2015-Apr-29 13:31N 49°12' W 122°54'0 0.1
2015-Apr-29 12:31N 49°12' W 122°54'0 0.2
2015-Apr-29 11:33N 49°12' W 122°55'7 6.6
2015-Apr-29 10:33N 49°08' W 123°03'7 7.3
2015-Apr-29 09:33N 49°08' W 123°14'9 8.7
2015-Apr-29 08:33N 49°08' W 123°28'10 9.7
2015-Apr-29 07:33N 49°12' W 123°42'7 7.4
2015-Apr-29 06:33N 49°10' W 123°53'1 1.1
2015-Apr-29 05:29N 49°09' W 123°52'0 0.0
2015-Apr-29 04:32N 49°09' W 123°52'6 6.0
2015-Apr-29 03:33N 49°13' W 123°46'1010.2
2015-Apr-29 02:33N 49°09' W 123°31'10 9.7
2015-Apr-29 01:33N 49°07' W 123°17'1111.2
2015-Apr-29 00:33N 49°09' W 123°00'4 4.3
2015-Apr-28 23:32N 49°12' W 122°54'0 0.0
2015-Apr-28 22:29N 49°12' W 122°54'0 0.0
2015-Apr-28 21:32N 49°12' W 122°54'0 0.0
2015-Apr-28 20:32N 49°12' W 122°54'0 0.0
2015-Apr-28 19:32N 49°12' W 122°54'0 0.0
2015-Apr-28 18:32N 49°12' W 122°54'0 0.0
2015-Apr-28 17:32N 49°12' W 122°54'2 1.7
2015-Apr-28 16:33N 49°10' W 122°56'5 5.4
2015-Apr-28 15:33N 49°08' W 123°03'5 4.9
2015-Apr-28 14:33N 49°07' W 123°10'5 5.0
2015-Apr-28 13:33N 49°06' W 123°18'8 7.8
2015-Apr-28 12:33N 49°08' W 123°30'8 7.8
2015-Apr-28 11:33N 49°11' W 123°41'8 7.6
2015-Apr-28 10:33N 49°12' W 123°52'4 3.5
2015-Apr-28 09:32N 49°09' W 123°52'0 0.0
2015-Apr-28 08:32N 49°09' W 123°52'5 5.0
2015-Apr-28 07:33N 49°13' W 123°48'1110.8
2015-Apr-28 06:33N 49°09' W 123°32'1010.1
2015-Apr-28 05:33N 49°07' W 123°18'1010.3
2015-Apr-28 04:33N 49°09' W 123°02'6 5.7
2015-Apr-28 03:33N 49°12' W 122°54'0 0.1
2015-Apr-28 02:33N 49°12' W 122°54'0 0.0
2015-Apr-28 01:33N 49°12' W 122°54'0 0.0
2015-Apr-28 00:30N 49°12' W 122°54'  
2015-Apr-25 13:31N 49°12' W 122°54'0 0.1
2015-Apr-25 12:33N 49°12' W 122°54'2 1.9
2015-Apr-25 11:33N 49°10' W 122°56'8 8.2
2015-Apr-25 10:33N 49°07' W 123°07'  

Dump ship's entire track history